createdAt,value
2022-12-23T00:00:42.565Z,93104.75
2022-12-23T00:03:09.304Z,93108.16
2022-12-23T00:05:38.155Z,93077.78
2022-12-23T00:08:06.598Z,93082.56
2022-12-23T00:10:34.071Z,93071.78
2022-12-23T00:13:21.187Z,93069.38
2022-12-23T00:15:47.576Z,93074.78
2022-12-23T00:18:14.092Z,93068.22
2022-12-23T00:20:40.501Z,93074.59
2022-12-23T00:23:07.050Z,93049.41
2022-12-23T00:25:41.719Z,93076.22
2022-12-23T00:28:12.625Z,93096.81
2022-12-23T00:30:50.564Z,93111.81
2022-12-23T00:33:22.320Z,93085.00
2022-12-23T00:35:49.529Z,93088.41
2022-12-23T00:38:17.337Z,93053.38
2022-12-23T00:41:02.597Z,93064.81
2022-12-23T00:43:29.011Z,93060.97
2022-12-23T00:45:55.490Z,93078.97
2022-12-23T00:48:40.601Z,93078.97
2022-12-23T00:51:06.989Z,93067.00
2022-12-23T00:53:49.717Z,93062.00
2022-12-23T00:56:16.166Z,93059.00
2022-12-23T00:58:42.563Z,93039.00
2022-12-23T01:01:27.577Z,93076.19
2022-12-23T01:04:14.881Z,93047.38
2022-12-23T01:06:41.267Z,93056.19
2022-12-23T01:09:07.680Z,93033.38
2022-12-23T01:11:34.163Z,93064.59
2022-12-23T01:14:00.580Z,93050.59
2022-12-23T01:16:27.089Z,93060.59
2022-12-23T01:18:53.527Z,93056.00
2022-12-23T01:21:19.913Z,93074.56
2022-12-23T01:23:46.443Z,93068.94
2022-12-23T01:26:12.986Z,93080.16
2022-12-23T01:28:39.395Z,93073.72
2022-12-23T01:31:09.549Z,93097.94
2022-12-23T01:33:36.083Z,93088.53
2022-12-23T01:36:04.770Z,93074.50
2022-12-23T01:38:31.350Z,93064.94
2022-12-23T01:40:58.793Z,93104.56
2022-12-23T01:43:45.554Z,93097.38
2022-12-23T01:46:12.044Z,93107.38
2022-12-23T01:48:39.905Z,93088.56
2022-12-23T01:51:12.109Z,93095.31
2022-12-23T01:53:43.507Z,93074.97
2022-12-23T01:56:26.428Z,93100.16
2022-12-23T01:59:51.325Z,93116.16
2022-12-23T02:02:36.237Z,93110.19
2022-12-23T02:05:03.050Z,93112.19
2022-12-23T02:07:48.093Z,93113.78
2022-12-23T02:10:14.499Z,93128.19
2022-12-23T02:14:00.207Z,93151.81
2022-12-23T02:16:28.661Z,93122.63
2022-12-23T02:19:18.702Z,93139.00
2022-12-23T02:22:13.881Z,93135.63
2022-12-23T02:25:02.431Z,93120.19
2022-12-23T02:27:32.610Z,93136.56
2022-12-23T02:30:38.619Z,93157.75
2022-12-23T02:33:17.345Z,93156.16
2022-12-23T02:35:58.161Z,93142.56
2022-12-23T02:38:43.533Z,93142.16
2022-12-23T02:41:36.191Z,93158.97
2022-12-23T02:44:13.530Z,93132.19
2022-12-23T02:46:50.179Z,93119.41
2022-12-23T02:49:40.118Z,93125.38
2022-12-23T02:52:13.640Z,93132.19
2022-12-23T02:54:48.574Z,93149.34
2022-12-23T02:57:21.064Z,93129.41
2022-12-23T02:59:51.521Z,93144.56
2022-12-23T03:02:18.878Z,93140.13
2022-12-23T03:04:45.466Z,93142.91
2022-12-23T03:07:30.019Z,93134.66
2022-12-23T03:10:04.985Z,93145.25
2022-12-23T03:12:50.441Z,93132.06
2022-12-23T03:15:38.571Z,93152.25
2022-12-23T03:18:28.669Z,93156.44
2022-12-23T03:21:02.291Z,93158.09
2022-12-23T03:23:34.412Z,93156.53
2022-12-23T03:26:11.991Z,93180.16
2022-12-23T03:28:51.454Z,93166.91
2022-12-23T03:31:24.608Z,93159.78
2022-12-23T03:33:57.911Z,93165.75
2022-12-23T03:36:34.460Z,93139.31
2022-12-23T03:39:04.426Z,93152.50
2022-12-23T03:41:35.717Z,93167.66
2022-12-23T03:44:21.016Z,93163.69
2022-12-23T03:46:54.309Z,93181.34
2022-12-23T03:49:31.238Z,93184.13
2022-12-23T03:52:04.092Z,93191.22
2022-12-23T03:54:39.212Z,93165.22
2022-12-23T03:57:08.240Z,93164.81
2022-12-23T03:59:39.003Z,93170.69
2022-12-23T04:02:30.449Z,93188.44
2022-12-23T04:05:13.879Z,93194.41
2022-12-23T04:07:46.111Z,93164.84
2022-12-23T04:10:13.629Z,93188.44
2022-12-23T04:12:40.385Z,93193.66
2022-12-23T04:15:12.479Z,93188.84
2022-12-23T04:17:39.635Z,93163.63
2022-12-23T04:20:15.653Z,93193.22
2022-12-23T04:22:43.481Z,93167.13
2022-12-23T04:25:14.568Z,93175.13
2022-12-23T04:27:41.443Z,93199.91
2022-12-23T04:30:10.680Z,93199.97
2022-12-23T04:32:37.277Z,93194.56
2022-12-23T04:35:04.541Z,93195.34
2022-12-23T04:37:30.997Z,93169.91
2022-12-23T04:39:57.484Z,93174.72
2022-12-23T04:42:23.926Z,93163.78
2022-12-23T04:44:50.361Z,93185.34
2022-12-23T04:47:16.823Z,93173.81
2022-12-23T04:49:43.234Z,93164.13
2022-12-23T04:52:09.712Z,93148.63
2022-12-23T04:54:39.319Z,93156.13
2022-12-23T04:57:10.648Z,93198.97
2022-12-23T04:59:39.182Z,93169.44
2022-12-23T05:02:05.751Z,93196.03
2022-12-23T05:04:32.340Z,93193.94
2022-12-23T05:06:58.766Z,93193.88
2022-12-23T05:09:25.183Z,93191.03
2022-12-23T05:11:54.627Z,93194.25
2022-12-23T05:14:21.054Z,93181.47
2022-12-23T05:16:47.503Z,93165.47
2022-12-23T05:19:14.006Z,93165.53
2022-12-23T05:21:40.401Z,93177.91
2022-12-23T05:24:06.944Z,93189.72
2022-12-23T05:26:33.317Z,93178.94
2022-12-23T05:28:59.693Z,93205.19
2022-12-23T05:31:28.289Z,93197.88
2022-12-23T05:33:54.944Z,93173.09
2022-12-23T05:36:22.374Z,93188.28
2022-12-23T05:38:48.811Z,93187.47
2022-12-23T05:41:16.855Z,93182.56
2022-12-23T05:43:43.252Z,93170.38
2022-12-23T05:46:09.818Z,93180.59
2022-12-23T05:48:44.289Z,93190.97
2022-12-23T05:51:10.743Z,93155.72
2022-12-23T05:53:37.230Z,93199.97
2022-12-23T05:56:05.836Z,93209.75
2022-12-23T05:58:32.444Z,93192.88
2022-12-23T06:00:58.841Z,93196.75
2022-12-23T06:03:25.623Z,93197.47
2022-12-23T06:05:52.498Z,93189.94
2022-12-23T06:08:23.107Z,93204.88
2022-12-23T06:10:49.531Z,93206.13
2022-12-23T06:13:16.226Z,93187.38
2022-12-23T06:15:43.071Z,93192.16
2022-12-23T06:18:09.471Z,93192.44
2022-12-23T06:20:35.916Z,93181.22
2022-12-23T06:23:02.331Z,93185.41
2022-12-23T06:25:29.082Z,93198.97
2022-12-23T06:27:55.479Z,93222.13
2022-12-23T06:30:21.867Z,93199.66
2022-12-23T06:32:48.257Z,93204.63
2022-12-23T06:35:14.684Z,93203.25
2022-12-23T06:37:41.073Z,93197.81
2022-12-23T06:40:08.050Z,93209.09
2022-12-23T06:42:34.490Z,93212.19
2022-12-23T06:45:00.922Z,93180.44
2022-12-23T06:47:27.343Z,93226.56
2022-12-23T06:49:54.836Z,93227.00
2022-12-23T06:52:22.945Z,93209.31
2022-12-23T06:54:49.435Z,93217.09
2022-12-23T06:57:15.826Z,93231.34
2022-12-23T06:59:42.230Z,93207.34
2022-12-23T07:02:11.788Z,93225.75
2022-12-23T07:04:38.408Z,93207.75
2022-12-23T07:07:04.814Z,93219.66
2022-12-23T07:09:31.241Z,93225.19
2022-12-23T07:12:06.931Z,93225.56
2022-12-23T07:14:33.372Z,93219.25
2022-12-23T07:16:59.828Z,93217.66
2022-12-23T07:19:26.360Z,93222.13
2022-12-23T07:21:52.749Z,93239.47
2022-12-23T07:24:19.186Z,93224.47
2022-12-23T07:26:45.570Z,93244.88
2022-12-23T07:29:11.962Z,93221.84
2022-12-23T07:31:41.083Z,93246.88
2022-12-23T07:34:08.009Z,93238.97
2022-12-23T07:36:34.415Z,93243.03
2022-12-23T07:39:00.995Z,93251.97
2022-12-23T07:41:27.474Z,93241.81
2022-12-23T07:43:53.859Z,93265.06
2022-12-23T07:46:20.315Z,93257.88
2022-12-23T07:48:46.860Z,93256.47
2022-12-23T07:51:13.454Z,93252.09
2022-12-23T07:53:39.949Z,93245.09
2022-12-23T07:56:06.681Z,93251.25
2022-12-23T07:58:33.088Z,93259.59
2022-12-23T08:01:05.207Z,93270.19
2022-12-23T08:03:31.871Z,93264.69
2022-12-23T08:06:02.864Z,93265.00
2022-12-23T08:08:29.509Z,93252.94
2022-12-23T08:11:01.001Z,93244.22
2022-12-23T08:13:28.090Z,93259.91
2022-12-23T08:15:59.107Z,93269.81
2022-12-23T08:18:26.633Z,93277.78
2022-12-23T08:20:57.941Z,93275.81
2022-12-23T08:23:25.869Z,93265.00
2022-12-23T08:26:12.235Z,93286.28
2022-12-23T08:28:40.192Z,93285.19
2022-12-23T08:31:09.404Z,93283.56
2022-12-23T08:33:38.117Z,93273.13
2022-12-23T08:36:07.213Z,93282.41
2022-12-23T08:38:34.363Z,93288.78
2022-12-23T08:41:13.174Z,93272.03
2022-12-23T08:43:40.120Z,93307.59
2022-12-23T08:46:06.679Z,93290.56
2022-12-23T08:48:50.251Z,93317.16
2022-12-23T08:51:19.581Z,93308.44
2022-12-23T08:53:47.195Z,93320.81
2022-12-23T08:56:19.200Z,93328.22
2022-12-23T08:58:47.569Z,93310.34
2022-12-23T09:01:16.641Z,93313.28
2022-12-23T09:03:44.517Z,93333.19
2022-12-23T09:06:13.968Z,93304.78
2022-12-23T09:08:40.986Z,93326.75
2022-12-23T09:11:12.629Z,93340.88
2022-12-23T09:13:39.480Z,93320.47
2022-12-23T09:16:06.677Z,93319.84
2022-12-23T09:18:33.695Z,93337.88
2022-12-23T09:21:01.845Z,93345.47
2022-12-23T09:23:28.351Z,93330.72
2022-12-23T09:25:55.785Z,93327.56
2022-12-23T09:28:23.566Z,93337.88
2022-12-23T09:30:50.018Z,93328.53
2022-12-23T09:33:17.121Z,93319.19
2022-12-23T09:35:44.090Z,93334.09
2022-12-23T09:38:10.472Z,93308.09
2022-12-23T09:40:38.903Z,93287.72
2022-12-23T09:43:20.498Z,93353.97
2022-12-23T09:46:23.952Z,93347.91
2022-12-23T09:49:09.264Z,93341.47
2022-12-23T09:51:35.624Z,93322.69
2022-12-23T09:54:23.214Z,93323.53
2022-12-23T09:57:07.769Z,93338.28
2022-12-23T09:59:54.982Z,93345.59
2022-12-23T10:02:30.658Z,93339.13
2022-12-23T10:05:11.207Z,93309.53
2022-12-23T10:07:51.401Z,93326.78
2022-12-23T10:10:30.830Z,93319.47
2022-12-23T10:12:59.960Z,93329.50
2022-12-23T10:15:33.555Z,93329.09
2022-12-23T10:18:07.487Z,93312.22
2022-12-23T10:20:50.946Z,93314.59
2022-12-23T10:23:27.424Z,93335.56
2022-12-23T10:25:53.801Z,93263.63
2022-12-23T10:28:20.355Z,93307.53
2022-12-23T10:31:39.272Z,93294.38
2022-12-23T10:34:07.305Z,93323.50
2022-12-23T10:36:52.089Z,93316.53
2022-12-23T10:39:32.816Z,93326.78
2022-12-23T10:42:02.295Z,93323.63
2022-12-23T10:44:40.932Z,93330.53
2022-12-23T10:47:16.713Z,93325.03
2022-12-23T10:50:11.269Z,93315.81
2022-12-23T10:52:41.491Z,93281.75
2022-12-23T10:55:34.301Z,93296.06
2022-12-23T10:58:08.640Z,93281.69
2022-12-23T11:00:39.928Z,93297.94
2022-12-23T11:03:20.612Z,93276.25
2022-12-23T11:05:50.886Z,93290.47
2022-12-23T11:08:27.368Z,93263.44
2022-12-23T11:10:54.925Z,93278.22
2022-12-23T11:13:34.504Z,93265.25
2022-12-23T11:16:20.981Z,93268.00
2022-12-23T11:19:06.820Z,93249.22
2022-12-23T11:21:37.306Z,93259.59
2022-12-23T11:24:16.468Z,93253.06
2022-12-23T11:26:44.864Z,93256.38
2022-12-23T11:29:27.632Z,93244.53
2022-12-23T11:31:55.576Z,93250.09
2022-12-23T11:34:25.081Z,93247.63
2022-12-23T11:37:01.782Z,93222.25
2022-12-23T11:39:36.624Z,93217.72
2022-12-23T11:42:11.312Z,93237.63
2022-12-23T11:44:37.656Z,93234.31
2022-12-23T11:47:22.423Z,93228.44
2022-12-23T11:50:01.108Z,93227.22
2022-12-23T11:52:32.590Z,93198.34
2022-12-23T11:55:04.306Z,93227.16
2022-12-23T11:57:44.411Z,93216.13
2022-12-23T12:00:41.951Z,93223.53
2022-12-23T12:03:16.032Z,93219.44
2022-12-23T12:05:51.161Z,93195.97
2022-12-23T12:08:27.665Z,93190.47
2022-12-23T12:11:02.314Z,93205.50
2022-12-23T12:13:32.564Z,93177.81
2022-12-23T12:16:45.697Z,93183.47
2022-12-23T12:19:24.050Z,93157.47
2022-12-23T12:22:02.648Z,93104.31
2022-12-23T12:24:47.757Z,93173.38
2022-12-23T12:27:28.175Z,93175.91
2022-12-23T12:30:08.349Z,93159.31
2022-12-23T12:33:16.337Z,93163.63
2022-12-23T12:35:53.845Z,93155.31
2022-12-23T12:38:32.604Z,93146.13
2022-12-23T12:41:14.710Z,93167.56
2022-12-23T12:44:15.498Z,93128.56
2022-12-23T12:46:54.132Z,93170.44
2022-12-23T12:49:29.350Z,93156.50
2022-12-23T12:52:19.563Z,93136.16
2022-12-23T12:54:58.555Z,93145.22
2022-12-23T12:57:25.630Z,93159.25
2022-12-23T13:00:05.613Z,93137.13
2022-12-23T13:02:41.952Z,93147.16
2022-12-23T13:05:36.495Z,93143.59
2022-12-23T13:08:43.746Z,93116.66
2022-12-23T13:11:33.152Z,93105.69
2022-12-23T13:14:06.823Z,93146.47
2022-12-23T13:16:59.823Z,93106.22
2022-12-23T13:19:51.788Z,93121.66
2022-12-23T13:22:27.598Z,93123.78
2022-12-23T13:25:03.303Z,93132.16
2022-12-23T13:27:53.457Z,93134.13
2022-12-23T13:30:42.510Z,93131.41
2022-12-23T13:33:57.045Z,93130.69
2022-12-23T13:37:04.206Z,93128.78
2022-12-23T13:40:18.368Z,93122.69
2022-12-23T13:42:56.698Z,93097.00
2022-12-23T13:45:53.702Z,93131.84
2022-12-23T13:48:43.711Z,93109.91
2022-12-23T13:51:29.898Z,93127.34
2022-12-23T13:54:21.986Z,93107.63
2022-12-23T14:00:34.418Z,93115.00
2022-12-23T14:03:00.921Z,93131.31
2022-12-23T14:05:34.462Z,93113.28
2022-12-23T14:08:19.208Z,93111.81
2022-12-23T14:11:10.729Z,93120.66
2022-12-23T14:13:52.357Z,93124.53
2022-12-23T14:16:37.588Z,93089.69
2022-12-23T14:19:28.955Z,93103.13
2022-12-23T14:22:09.513Z,93119.31
2022-12-23T14:24:51.023Z,93111.97
2022-12-23T14:27:45.563Z,93099.94
2022-12-23T14:30:16.957Z,93104.44
2022-12-23T14:32:52.147Z,93112.28
2022-12-23T14:35:27.675Z,93113.16
2022-12-23T14:38:16.771Z,93093.97
2022-12-23T14:40:43.216Z,93118.53
2022-12-23T14:43:27.210Z,93110.53
2022-12-23T14:45:55.937Z,93078.72
2022-12-23T14:48:34.616Z,93111.13
2022-12-23T14:51:10.158Z,93123.88
2022-12-23T14:53:57.930Z,93120.03
2022-12-23T14:56:47.417Z,93116.91
2022-12-23T14:59:38.881Z,93110.16
2022-12-23T15:02:28.994Z,93111.69
2022-12-23T15:04:57.495Z,93111.19
2022-12-23T15:07:38.740Z,93101.25
2022-12-23T15:10:08.587Z,93086.63
2022-12-23T15:12:41.485Z,93096.22
2022-12-23T15:15:20.433Z,93078.31
2022-12-23T15:17:47.486Z,93099.19
2022-12-23T15:20:19.636Z,93106.47
2022-12-23T15:22:48.553Z,93100.56
2022-12-23T15:25:51.313Z,93108.06
2022-12-23T15:28:27.946Z,93115.22
2022-12-23T15:31:05.239Z,93107.75
2022-12-23T15:34:03.930Z,93076.97
2022-12-23T15:36:37.622Z,93110.44
2022-12-23T15:39:09.804Z,93105.84
2022-12-23T15:41:52.591Z,93124.28
2022-12-23T15:44:24.150Z,93116.06
2022-12-23T15:46:53.488Z,93126.31
2022-12-23T15:49:28.994Z,93123.19
2022-12-23T15:52:09.689Z,93119.81
2022-12-23T15:55:10.586Z,93142.19
2022-12-23T15:57:50.168Z,93104.84
2022-12-23T16:01:19.472Z,93147.09
2022-12-23T16:04:05.770Z,93136.34
2022-12-23T16:06:52.598Z,93166.88
2022-12-23T16:09:37.666Z,93137.13
2022-12-23T16:12:16.405Z,93156.38
2022-12-23T16:15:04.487Z,93155.88
2022-12-23T16:17:38.050Z,93127.59
2022-12-23T16:20:40.322Z,93148.97
2022-12-23T16:23:10.932Z,93138.38
2022-12-23T16:25:43.029Z,93126.88
2022-12-23T16:28:22.950Z,93146.16
2022-12-23T16:30:56.548Z,93150.72
2022-12-23T16:33:49.380Z,93152.63
2022-12-23T16:36:27.087Z,93164.25
2022-12-23T16:39:09.184Z,93132.16
2022-12-23T16:41:37.893Z,93155.59
2022-12-23T16:44:15.315Z,93153.72
2022-12-23T16:46:51.699Z,93146.69
2022-12-23T16:49:27.905Z,93163.47
2022-12-23T16:52:05.565Z,93149.41
2022-12-23T16:54:43.333Z,93166.19
2022-12-23T16:57:10.752Z,93132.94
2022-12-23T16:59:40.887Z,93149.72
2022-12-23T17:02:23.958Z,93153.72
2022-12-23T17:04:51.195Z,93154.47
2022-12-23T17:07:17.645Z,93142.75
2022-12-23T17:09:44.053Z,93173.88
2022-12-23T17:12:15.426Z,93170.44
2022-12-23T17:14:44.014Z,93143.44
2022-12-23T17:17:16.607Z,93159.63
2022-12-23T17:19:57.573Z,93154.47
2022-12-23T17:22:25.304Z,93185.63
2022-12-23T17:24:51.816Z,93173.63
2022-12-23T17:27:20.550Z,93170.59
2022-12-23T17:29:47.056Z,93157.94
2022-12-23T17:32:16.558Z,93182.50
2022-12-23T17:34:43.595Z,93185.03
2022-12-23T17:37:15.453Z,93188.38
2022-12-23T17:39:43.576Z,93183.22
2022-12-23T17:42:25.215Z,93199.00
2022-12-23T17:44:52.335Z,93171.47
2022-12-23T17:47:22.204Z,93173.06
2022-12-23T17:49:49.341Z,93175.22
2022-12-23T17:52:21.763Z,93172.06
2022-12-23T17:54:50.171Z,93176.72
2022-12-23T17:57:22.793Z,93194.44
2022-12-23T17:59:51.120Z,93184.28
2022-12-23T18:02:35.110Z,93174.22
2022-12-23T18:05:02.841Z,93177.28
2022-12-23T18:07:29.230Z,93174.50
2022-12-23T18:09:55.601Z,93173.19
2022-12-23T18:12:39.086Z,93171.91
2022-12-23T18:15:14.884Z,93151.22
2022-12-23T18:17:41.326Z,93151.03
2022-12-23T18:20:14.532Z,93144.19
2022-12-23T18:22:42.494Z,93165.97
2022-12-23T18:25:23.280Z,93166.41
2022-12-23T18:27:50.423Z,93162.19
2022-12-23T18:30:28.295Z,93151.00
2022-12-23T18:32:54.767Z,93138.44
2022-12-23T18:35:38.302Z,93149.97
2022-12-23T18:38:04.772Z,93143.81
2022-12-23T18:40:33.219Z,93129.91
2022-12-23T18:43:00.388Z,93145.94
2022-12-23T18:45:41.883Z,93138.81
2022-12-23T18:48:09.398Z,93170.59
2022-12-23T18:50:38.581Z,93144.19
2022-12-23T18:53:25.219Z,93150.72
2022-12-23T18:55:53.590Z,93175.22
2022-12-23T18:58:20.394Z,93146.47
2022-12-23T19:00:54.992Z,93160.81
2022-12-23T19:03:28.843Z,93184.84
2022-12-23T19:06:06.641Z,93192.63
2022-12-23T19:08:34.831Z,93196.97
2022-12-23T19:11:18.405Z,93168.31
2022-12-23T19:13:47.229Z,93147.91
2022-12-23T19:16:16.078Z,93172.47
2022-12-23T19:18:59.984Z,93177.38
2022-12-23T19:21:37.777Z,93162.63
2022-12-23T19:24:19.578Z,93177.81
2022-12-23T19:26:46.030Z,93179.31
2022-12-23T19:29:12.514Z,93174.88
2022-12-23T19:31:41.027Z,93197.84
2022-12-23T19:34:22.993Z,93181.44
2022-12-23T19:37:12.139Z,93196.72
2022-12-23T19:39:40.895Z,93179.72
2022-12-23T19:42:08.087Z,93183.97
2022-12-23T19:44:34.872Z,93189.19
2022-12-23T19:47:24.984Z,93212.88
2022-12-23T19:49:51.401Z,93184.84
2022-12-23T19:52:17.851Z,93183.13
2022-12-23T19:54:44.230Z,93185.44
2022-12-23T19:57:19.975Z,93216.69
2022-12-23T19:59:46.512Z,93213.50
2022-12-23T20:02:17.002Z,93226.22
2022-12-23T20:04:43.950Z,93222.63
2022-12-23T20:07:10.533Z,93202.44
2022-12-23T20:09:45.215Z,93221.22
2022-12-23T20:12:12.707Z,93225.94
2022-12-23T20:14:39.238Z,93227.56
2022-12-23T20:17:05.648Z,93237.03
2022-12-23T20:19:42.186Z,93239.50
2022-12-23T20:22:16.209Z,93246.00
2022-12-23T20:24:50.060Z,93231.19
2022-12-23T20:27:20.159Z,93238.00
2022-12-23T20:29:50.273Z,93241.63
2022-12-23T20:32:16.684Z,93238.72
2022-12-23T20:34:43.059Z,93270.22
2022-12-23T20:37:09.745Z,93250.50
2022-12-23T20:39:53.579Z,93272.16
2022-12-23T20:42:32.315Z,93258.56
2022-12-23T20:44:58.709Z,93260.53
2022-12-23T20:47:34.282Z,93277.38
2022-12-23T20:50:00.853Z,93273.44
2022-12-23T20:52:34.052Z,93279.41
2022-12-23T20:55:01.637Z,93289.09
2022-12-23T20:57:28.631Z,93265.44
2022-12-23T20:59:55.032Z,93299.47
2022-12-23T21:02:21.561Z,93307.63
2022-12-23T21:04:58.490Z,93309.59
2022-12-23T21:07:26.234Z,93295.34
2022-12-23T21:09:52.807Z,93294.66
2022-12-23T21:12:19.210Z,93307.03
2022-12-23T21:14:45.629Z,93319.06
2022-12-23T21:17:20.963Z,93309.75
2022-12-23T21:19:47.344Z,93303.06
2022-12-23T21:22:13.725Z,93305.44
2022-12-23T21:24:41.127Z,93291.03
2022-12-23T21:27:07.500Z,93312.63
2022-12-23T21:29:33.917Z,93319.31
2022-12-23T21:32:00.515Z,93345.81
2022-12-23T21:34:27.053Z,93347.91
2022-12-23T21:36:53.568Z,93347.63
2022-12-23T21:39:20.140Z,93349.47
2022-12-23T21:41:53.827Z,93350.00
2022-12-23T21:44:20.240Z,93360.53
2022-12-23T21:47:02.639Z,93343.50
2022-12-23T21:49:34.171Z,93336.09
2022-12-23T21:52:00.552Z,93343.03
2022-12-23T21:54:26.936Z,93357.56
2022-12-23T21:56:53.348Z,93340.56
2022-12-23T21:59:19.839Z,93342.72
2022-12-23T22:01:46.319Z,93369.22
2022-12-23T22:04:13.073Z,93370.06
2022-12-23T22:06:45.837Z,93366.50
2022-12-23T22:09:16.989Z,93343.19
2022-12-23T22:11:44.056Z,93359.28
2022-12-23T22:14:12.574Z,93359.59
2022-12-23T22:16:39.019Z,93356.47
2022-12-23T22:19:06.931Z,93376.38
2022-12-23T22:21:35.587Z,93390.53
2022-12-23T22:24:02.599Z,93369.63
2022-12-23T22:26:31.491Z,93381.25
2022-12-23T22:29:00.165Z,93401.41
2022-12-23T22:31:38.379Z,93398.66
2022-12-23T22:34:05.966Z,93386.59
2022-12-23T22:36:32.912Z,93383.38
2022-12-23T22:39:00.830Z,93383.13
2022-12-23T22:41:29.289Z,93364.19
2022-12-23T22:43:56.855Z,93385.41
2022-12-23T22:46:24.514Z,93368.53
2022-12-23T22:48:51.717Z,93393.31
2022-12-23T22:51:24.703Z,93391.28
2022-12-23T22:53:51.355Z,93378.94
2022-12-23T22:56:19.645Z,93379.94
2022-12-23T22:58:46.070Z,93363.63
2022-12-23T23:01:33.460Z,93387.56
2022-12-23T23:04:02.419Z,93411.97
2022-12-23T23:06:28.799Z,93419.97
2022-12-23T23:08:56.081Z,93412.47
2022-12-23T23:11:23.871Z,93432.94
2022-12-23T23:13:50.587Z,93422.28
2022-12-23T23:16:17.760Z,93423.94
2022-12-23T23:18:44.292Z,93397.84
2022-12-23T23:21:12.845Z,93374.13
2022-12-23T23:23:39.340Z,93396.25
2022-12-23T23:26:08.565Z,93412.19
2022-12-23T23:28:35.138Z,93372.69
2022-12-23T23:31:32.018Z,93385.41
2022-12-23T23:33:49.245Z,93379.75
2022-12-23T23:36:15.704Z,93397.09
2022-12-23T23:38:42.139Z,93401.91
2022-12-23T23:41:08.577Z,93412.38
2022-12-23T23:43:34.973Z,93392.63
2022-12-23T23:46:01.481Z,93402.25
2022-12-23T23:48:28.070Z,93387.47
2022-12-23T23:51:03.901Z,93400.28
2022-12-23T23:53:30.369Z,93397.69
2022-12-23T23:56:07.333Z,93388.28
2022-12-23T23:58:35.064Z,93394.66
